createdAt,value
2023-11-18T00:01:14.954Z,3.17
2023-11-18T00:04:21.641Z,3.20
2023-11-18T00:07:25.425Z,3.70
2023-11-18T00:10:30.703Z,3.37
2023-11-18T00:13:34.713Z,3.40
2023-11-18T00:16:38.482Z,3.35
2023-11-18T00:19:43.168Z,3.55
2023-11-18T00:22:46.702Z,3.30
2023-11-18T00:25:53.813Z,3.42
2023-11-18T00:28:57.346Z,3.08
2023-11-18T00:32:01.307Z,2.50
2023-11-18T00:35:05.780Z,3.00
2023-11-18T00:38:09.837Z,2.70
2023-11-18T00:41:14.939Z,2.77
2023-11-18T00:44:19.210Z,2.65
2023-11-18T00:47:24.191Z,3.05
2023-11-18T00:50:28.047Z,2.80
2023-11-18T00:53:31.589Z,3.03
2023-11-18T00:56:37.003Z,2.70
2023-11-18T00:59:45.779Z,2.45
2023-11-18T01:02:51.100Z,2.80
2023-11-18T01:05:55.559Z,2.60
2023-11-18T01:08:59.805Z,2.10
2023-11-18T01:12:08.861Z,2.53
2023-11-18T01:15:13.789Z,2.63
2023-11-18T01:18:18.848Z,2.53
2023-11-18T01:21:24.110Z,2.65
2023-11-18T01:24:27.721Z,2.00
2023-11-18T01:27:34.386Z,2.20
2023-11-18T01:30:38.219Z,2.13
2023-11-18T01:33:42.934Z,2.20
2023-11-18T01:36:46.420Z,2.15
2023-11-18T01:39:51.521Z,2.60
2023-11-18T01:42:57.996Z,2.00
2023-11-18T01:46:08.442Z,2.40
2023-11-18T01:49:12.064Z,2.33
2023-11-18T01:52:16.804Z,2.10
2023-11-18T01:55:20.389Z,2.83
2023-11-18T01:58:27.010Z,3.00
2023-11-18T02:01:32.553Z,3.20
2023-11-18T02:04:36.580Z,3.07
2023-11-18T02:07:40.544Z,3.90
2023-11-18T02:11:03.956Z,3.88
2023-11-18T02:14:17.341Z,3.17
2023-11-18T02:17:25.499Z,3.40
2023-11-18T02:20:31.085Z,2.75
2023-11-18T02:23:35.180Z,1.40
2023-11-18T02:26:40.146Z,1.75
2023-11-18T02:29:49.935Z,1.50
2023-11-18T02:33:03.941Z,1.08
2023-11-18T02:36:17.326Z,1.10
2023-11-18T02:39:30.080Z,1.13
2023-11-18T02:42:38.879Z,1.08
2023-11-18T02:45:44.796Z,1.10
2023-11-18T02:48:48.696Z,1.10
2023-11-18T02:51:52.198Z,0.90
2023-11-18T02:54:56.018Z,0.90
2023-11-18T02:58:02.130Z,1.10
2023-11-18T03:01:10.886Z,1.08
2023-11-18T03:04:16.159Z,1.30
2023-11-18T03:07:20.019Z,0.90
2023-11-18T03:10:23.794Z,1.23
2023-11-18T03:13:29.395Z,1.10
2023-11-18T03:16:33.207Z,1.67
2023-11-18T03:19:38.193Z,1.50
2023-11-18T03:22:41.854Z,1.42
2023-11-18T03:25:47.739Z,1.55
2023-11-18T03:28:52.710Z,1.77
2023-11-18T03:31:56.886Z,1.70
2023-11-18T03:35:01.133Z,1.73
2023-11-18T03:38:05.688Z,1.67
2023-11-18T03:41:10.188Z,1.80
2023-11-18T03:44:15.811Z,2.13
2023-11-18T03:47:19.372Z,1.90
2023-11-18T03:50:23.142Z,1.93
2023-11-18T03:53:26.877Z,2.25
2023-11-18T03:56:30.968Z,1.80
2023-11-18T03:59:36.051Z,1.73
2023-11-18T04:02:41.293Z,1.52
2023-11-18T04:05:44.978Z,1.35
2023-11-18T04:08:48.864Z,1.27
2023-11-18T04:11:53.299Z,1.90
2023-11-18T04:14:58.483Z,1.58
2023-11-18T04:18:02.067Z,1.63
2023-11-18T04:21:07.774Z,1.40
2023-11-18T04:24:11.747Z,1.40
2023-11-18T04:27:15.582Z,1.88
2023-11-18T04:30:21.911Z,1.73
2023-11-18T04:33:26.669Z,1.60
2023-11-18T04:36:30.204Z,1.30
2023-11-18T04:39:34.693Z,1.40
2023-11-18T04:42:39.963Z,1.80
2023-11-18T04:45:45.435Z,1.20
2023-11-18T04:48:49.492Z,1.30
2023-11-18T04:51:53.485Z,1.40
2023-11-18T04:54:57.199Z,1.50
2023-11-18T04:58:01.013Z,1.27
2023-11-18T05:01:06.803Z,1.80
2023-11-18T05:04:10.713Z,1.60
2023-11-18T05:07:15.384Z,2.00
2023-11-18T05:10:19.847Z,2.23
2023-11-18T05:13:23.573Z,2.50
2023-11-18T05:16:28.855Z,2.10
2023-11-18T05:19:32.980Z,2.20
2023-11-18T05:22:37.742Z,2.67
2023-11-18T05:25:45.430Z,3.15
2023-11-18T05:28:50.070Z,2.53
2023-11-18T05:31:55.807Z,2.70
2023-11-18T05:34:59.606Z,2.50
2023-11-18T05:38:04.124Z,3.28
2023-11-18T05:41:17.670Z,3.23
2023-11-18T05:44:22.820Z,3.60
2023-11-18T05:47:28.485Z,3.63
2023-11-18T05:50:32.530Z,3.77
2023-11-18T05:53:37.235Z,4.25
2023-11-18T05:56:40.730Z,3.95
2023-11-18T05:59:44.849Z,4.88
2023-11-18T06:02:50.005Z,5.28
2023-11-18T06:05:55.365Z,5.20
2023-11-18T06:09:05.730Z,5.57
2023-11-18T06:12:10.070Z,5.83
2023-11-18T06:15:15.685Z,6.82
2023-11-18T06:18:21.339Z,6.40
2023-11-18T06:21:29.967Z,7.57
2023-11-18T06:24:33.868Z,7.75
2023-11-18T06:27:37.393Z,7.45
2023-11-18T06:30:41.198Z,7.43
2023-11-18T06:33:48.690Z,6.53
2023-11-18T06:36:52.962Z,6.75
2023-11-18T06:39:56.680Z,6.90
2023-11-18T06:43:03.390Z,5.57
2023-11-18T06:46:06.976Z,4.55
2023-11-18T06:49:16.617Z,4.05
2023-11-18T06:52:20.230Z,3.87
2023-11-18T06:55:24.050Z,3.53
2023-11-18T06:58:28.029Z,3.33
2023-11-18T07:01:32.313Z,3.08
2023-11-18T07:04:39.725Z,3.10
2023-11-18T07:07:44.472Z,3.15
2023-11-18T07:10:49.784Z,3.03
2023-11-18T07:13:57.498Z,3.63
2023-11-18T07:17:01.402Z,3.30
2023-11-18T07:20:08.278Z,3.83
2023-11-18T07:23:11.837Z,3.37
2023-11-18T07:26:16.166Z,3.75
2023-11-18T07:29:20.205Z,3.30
2023-11-18T07:32:23.990Z,3.75
2023-11-18T07:35:28.893Z,3.67
2023-11-18T07:38:33.325Z,3.85
2023-11-18T07:41:37.104Z,3.67
2023-11-18T07:44:41.172Z,3.43
2023-11-18T07:47:44.763Z,3.72
2023-11-18T07:50:50.233Z,3.15
2023-11-18T07:53:54.870Z,3.43
2023-11-18T07:56:59.369Z,4.05
2023-11-18T08:00:06.842Z,3.08
2023-11-18T08:03:17.265Z,2.67
2023-11-18T08:06:23.412Z,3.15
2023-11-18T08:09:27.557Z,2.63
2023-11-18T08:12:31.062Z,3.05
2023-11-18T08:15:35.563Z,2.53
2023-11-18T08:18:39.130Z,2.88
2023-11-18T08:21:44.243Z,3.08
2023-11-18T08:24:50.236Z,2.90
2023-11-18T08:27:54.408Z,3.03
2023-11-18T08:30:57.952Z,3.38
2023-11-18T08:34:01.649Z,2.75
2023-11-18T08:37:06.634Z,2.42
2023-11-18T08:40:15.842Z,2.80
2023-11-18T08:43:19.416Z,2.45
2023-11-18T08:46:23.190Z,2.30
2023-11-18T08:49:26.810Z,2.30
2023-11-18T08:52:31.973Z,2.25
2023-11-18T08:55:43.849Z,2.43
2023-11-18T08:58:50.553Z,2.38
2023-11-18T09:01:56.953Z,2.47
2023-11-18T09:05:01.170Z,2.45
2023-11-18T09:08:07.315Z,2.17
2023-11-18T09:11:16.031Z,2.10
2023-11-18T09:14:20.741Z,2.10
2023-11-18T09:17:24.714Z,1.97
2023-11-18T09:20:28.308Z,2.10
2023-11-18T09:23:35.596Z,2.00
2023-11-18T09:26:39.068Z,2.03
2023-11-18T09:29:42.784Z,2.10
2023-11-18T09:32:48.946Z,2.10
2023-11-18T09:35:53.317Z,2.10
2023-11-18T09:38:58.327Z,2.03
2023-11-18T09:42:03.785Z,2.15
2023-11-18T09:45:14.855Z,2.47
2023-11-18T09:48:26.326Z,2.30
2023-11-18T09:51:40.109Z,2.30
2023-11-18T09:54:57.589Z,2.30
2023-11-18T09:58:14.259Z,2.37
2023-11-18T10:01:22.578Z,2.40
2023-11-18T10:04:28.904Z,2.17
2023-11-18T10:07:37.384Z,3.20
2023-11-18T10:10:46.793Z,2.30
2023-11-18T10:13:51.044Z,2.08
2023-11-18T10:16:55.291Z,2.10
2023-11-18T10:20:01.543Z,2.10
2023-11-18T10:23:11.605Z,2.40
2023-11-18T10:26:17.062Z,2.05
2023-11-18T10:29:20.777Z,2.80
2023-11-18T10:32:28.556Z,2.72
2023-11-18T10:35:33.200Z,2.58
2023-11-18T10:38:44.798Z,2.53
2023-11-18T10:41:50.480Z,2.55
2023-11-18T10:44:58.986Z,2.60
2023-11-18T10:48:03.157Z,2.72
2023-11-18T10:51:08.429Z,2.10
2023-11-18T10:54:18.309Z,2.72
2023-11-18T10:57:25.318Z,3.03
2023-11-18T11:00:34.778Z,3.30
2023-11-18T11:03:56.828Z,2.88
2023-11-18T11:07:02.343Z,3.00
2023-11-18T11:10:07.160Z,2.63
2023-11-18T11:13:13.528Z,2.85
2023-11-18T11:16:21.646Z,2.63
2023-11-18T11:19:38.821Z,2.60
2023-11-18T11:23:09.487Z,2.83
2023-11-18T11:26:32.161Z,2.60
2023-11-18T11:29:48.186Z,2.78
2023-11-18T11:32:55.116Z,2.60
2023-11-18T11:36:05.042Z,2.95
2023-11-18T11:39:18.986Z,2.75
2023-11-18T11:42:26.284Z,3.20
2023-11-18T11:45:31.691Z,2.92
2023-11-18T11:48:37.413Z,3.20
2023-11-18T11:51:51.130Z,3.58
2023-11-18T11:55:07.777Z,3.30
2023-11-18T11:58:29.380Z,3.03
2023-11-18T12:01:39.287Z,3.22
2023-11-18T12:04:43.121Z,3.60
2023-11-18T12:07:47.640Z,3.33
2023-11-18T12:10:57.208Z,3.90
2023-11-18T12:14:14.211Z,2.97
2023-11-18T12:17:23.475Z,3.38
2023-11-18T12:20:45.695Z,3.53
2023-11-18T12:24:19.785Z,3.35
2023-11-18T12:27:52.617Z,3.67
2023-11-18T12:31:06.700Z,3.78
2023-11-18T12:34:13.622Z,3.40
2023-11-18T12:38:04.752Z,3.27
2023-11-18T12:41:12.731Z,3.33
2023-11-18T12:44:33.790Z,3.28
2023-11-18T12:47:43.797Z,3.13
2023-11-18T12:50:48.940Z,3.00
2023-11-18T12:53:54.809Z,3.45
2023-11-18T12:56:58.764Z,3.00
2023-11-18T13:00:02.779Z,3.23
2023-11-18T13:03:11.468Z,3.40
2023-11-18T13:06:17.347Z,3.20
2023-11-18T13:09:27.447Z,3.53
2023-11-18T13:12:31.810Z,4.03
2023-11-18T13:15:35.481Z,3.88
2023-11-18T13:18:50.363Z,3.80
2023-11-18T13:22:01.467Z,3.63
2023-11-18T13:25:06.337Z,3.88
2023-11-18T13:28:12.096Z,3.88
2023-11-18T13:31:17.668Z,4.03
2023-11-18T13:34:22.685Z,4.18
2023-11-18T13:37:28.139Z,3.78
2023-11-18T13:40:45.611Z,4.77
2023-11-18T13:43:49.480Z,4.45
2023-11-18T13:46:53.108Z,4.40
2023-11-18T13:49:59.552Z,4.10
2023-11-18T13:53:06.710Z,4.97
2023-11-18T13:56:11.210Z,4.35
2023-11-18T13:59:15.460Z,5.15
2023-11-18T14:02:19.960Z,4.57
2023-11-18T14:05:25.446Z,4.20
2023-11-18T14:08:30.815Z,4.70
2023-11-18T14:11:35.617Z,4.97
2023-11-18T14:14:39.762Z,5.63
2023-11-18T14:17:46.111Z,5.07
2023-11-18T14:20:51.453Z,5.28
2023-11-18T14:24:01.144Z,5.18
2023-11-18T14:27:06.147Z,4.38
2023-11-18T14:30:11.556Z,4.57
2023-11-18T14:33:15.408Z,4.43
2023-11-18T14:36:20.101Z,4.65
2023-11-18T14:39:26.824Z,4.40
2023-11-18T14:42:30.312Z,4.33
2023-11-18T14:45:34.056Z,5.30
2023-11-18T14:48:37.504Z,5.75
2023-11-18T14:51:42.224Z,5.25
2023-11-18T14:54:47.572Z,5.53
2023-11-18T14:57:51.641Z,6.13
2023-11-18T15:00:58.021Z,5.88
2023-11-18T15:04:05.401Z,5.73
2023-11-18T15:07:09.416Z,5.28
2023-11-18T15:10:15.321Z,6.88
2023-11-18T15:13:19.383Z,5.93
2023-11-18T15:16:23.885Z,6.80
2023-11-18T15:19:28.908Z,6.47
2023-11-18T15:22:32.689Z,6.70
2023-11-18T15:25:37.691Z,5.57
2023-11-18T15:28:42.080Z,5.83
2023-11-18T15:31:46.493Z,5.63
2023-11-18T15:34:50.239Z,6.33
2023-11-18T15:37:53.982Z,6.57
2023-11-18T15:40:59.732Z,5.78
2023-11-18T15:44:04.607Z,5.77
2023-11-18T15:47:10.920Z,6.60
2023-11-18T15:50:17.470Z,7.05
2023-11-18T15:53:22.546Z,6.65
2023-11-18T15:56:27.459Z,6.90
2023-11-18T15:59:31.955Z,6.65
2023-11-18T16:02:35.512Z,5.40
2023-11-18T16:05:39.448Z,6.40
2023-11-18T16:08:44.290Z,6.78
2023-11-18T16:11:50.705Z,6.97
2023-11-18T16:14:54.510Z,6.53
2023-11-18T16:18:01.731Z,6.72
2023-11-18T16:21:06.549Z,6.55
2023-11-18T16:24:11.181Z,7.00
2023-11-18T16:27:16.979Z,6.93
2023-11-18T16:30:25.834Z,7.95
2023-11-18T16:33:31.101Z,7.05
2023-11-18T16:36:35.037Z,7.93
2023-11-18T16:39:38.523Z,6.85
2023-11-18T16:42:43.834Z,6.97
2023-11-18T16:45:49.369Z,7.87
2023-11-18T16:48:55.490Z,7.95
2023-11-18T16:52:00.771Z,7.38
2023-11-18T16:55:07.543Z,7.03
2023-11-18T16:58:12.916Z,6.90
2023-11-18T17:01:18.035Z,6.53
2023-11-18T17:04:21.668Z,6.88
2023-11-18T17:07:27.733Z,6.37
2023-11-18T17:10:31.560Z,7.05
2023-11-18T17:13:37.498Z,6.43
2023-11-18T17:16:42.089Z,6.70
2023-11-18T17:19:45.971Z,6.82
2023-11-18T17:22:50.159Z,7.80
2023-11-18T17:25:56.685Z,7.85
2023-11-18T17:29:01.907Z,7.72
2023-11-18T17:32:06.890Z,7.72
2023-11-18T17:35:14.315Z,7.07
2023-11-18T17:38:18.255Z,8.17
2023-11-18T17:41:22.964Z,7.43
2023-11-18T17:44:28.852Z,6.82
2023-11-18T17:47:35.758Z,6.07
2023-11-18T17:50:39.678Z,6.30
2023-11-18T17:53:43.591Z,6.13
2023-11-18T17:56:47.599Z,6.57
2023-11-18T17:59:54.087Z,6.40
2023-11-18T18:02:58.438Z,6.78
2023-11-18T18:06:02.367Z,6.65
2023-11-18T18:09:16.933Z,6.57
2023-11-18T18:12:20.395Z,5.65
2023-11-18T18:15:27.564Z,5.20
2023-11-18T18:18:31.219Z,5.63
2023-11-18T18:21:34.926Z,9.10
2023-11-18T18:24:38.333Z,5.53
2023-11-18T18:27:42.376Z,5.93
2023-11-18T18:30:47.297Z,10.52
2023-11-18T18:33:52.264Z,10.38
2023-11-18T18:36:55.866Z,8.55
2023-11-18T18:40:00.161Z,5.03
2023-11-18T18:43:04.317Z,5.07
2023-11-18T18:46:09.716Z,5.03
2023-11-18T18:49:13.334Z,4.37
2023-11-18T18:52:17.112Z,5.30
2023-11-18T18:55:20.644Z,5.55
2023-11-18T18:58:24.487Z,5.80
2023-11-18T19:01:29.655Z,5.07
2023-11-18T19:07:37.451Z,4.55
2023-11-18T19:10:41.170Z,4.63
2023-11-18T19:13:44.695Z,4.38
2023-11-18T19:16:49.907Z,4.30
2023-11-18T19:19:53.476Z,4.60
2023-11-18T19:22:57.291Z,3.60
2023-11-18T19:26:00.778Z,4.68
2023-11-18T19:29:07.073Z,4.38
2023-11-18T19:32:12.110Z,4.10
2023-11-18T19:35:16.750Z,4.47
2023-11-18T19:38:20.400Z,4.40
2023-11-18T19:41:24.293Z,3.77
2023-11-18T19:44:27.866Z,4.53
2023-11-18T19:47:33.323Z,3.95
2023-11-18T19:50:36.956Z,5.03
2023-11-18T19:53:40.870Z,4.93
2023-11-18T19:56:44.740Z,5.13
2023-11-18T19:59:50.132Z,5.22
2023-11-18T20:02:55.267Z,4.70
2023-11-18T20:05:59.173Z,5.00
2023-11-18T20:09:03.994Z,4.72
2023-11-18T20:12:09.226Z,4.67
2023-11-18T20:15:13.400Z,4.80
2023-11-18T20:18:19.923Z,4.70
2023-11-18T20:21:23.769Z,5.30
2023-11-18T20:24:27.574Z,4.18
2023-11-18T20:27:31.032Z,4.95
2023-11-18T20:30:34.891Z,4.25
2023-11-18T20:33:43.228Z,4.63
2023-11-18T20:36:47.847Z,5.63
2023-11-18T20:39:51.952Z,5.57
2023-11-18T20:42:57.764Z,5.00
2023-11-18T20:46:01.179Z,5.03
2023-11-18T20:49:06.520Z,5.90
2023-11-18T20:52:10.726Z,4.90
2023-11-18T20:55:14.967Z,5.50
2023-11-18T20:58:18.516Z,5.57
2023-11-18T21:01:22.298Z,4.82
2023-11-18T21:04:28.141Z,5.40
2023-11-18T21:07:32.135Z,5.43
2023-11-18T21:10:36.450Z,5.03
2023-11-18T21:13:40.687Z,4.90
2023-11-18T21:16:47.010Z,5.38
2023-11-18T21:19:53.475Z,5.13
2023-11-18T21:22:57.319Z,4.80
2023-11-18T21:26:01.426Z,5.40
2023-11-18T21:29:05.496Z,5.03
2023-11-18T21:32:09.449Z,5.00
2023-11-18T21:35:16.241Z,5.30
2023-11-18T21:38:21.155Z,5.68
2023-11-18T21:41:25.085Z,5.75
2023-11-18T21:44:29.093Z,5.20
2023-11-18T21:47:33.425Z,5.00
2023-11-18T21:50:41.594Z,5.20
2023-11-18T21:53:45.354Z,5.53
2023-11-18T21:56:49.355Z,4.87
2023-11-18T21:59:53.571Z,4.53
2023-11-18T22:02:58.206Z,5.60
2023-11-18T22:06:03.331Z,5.53
2023-11-18T22:09:08.502Z,4.97
2023-11-18T22:12:11.983Z,5.00
2023-11-18T22:15:18.041Z,5.73
2023-11-18T22:18:23.770Z,4.93
2023-11-18T22:21:29.379Z,5.53
2023-11-18T22:24:32.970Z,5.33
2023-11-18T22:27:41.043Z,5.00
2023-11-18T22:30:46.496Z,5.13
2023-11-18T22:33:50.518Z,4.70
2023-11-18T22:36:56.524Z,4.97
2023-11-18T22:40:00.476Z,6.32
2023-11-18T22:43:04.193Z,5.57
2023-11-18T22:46:12.039Z,4.87
2023-11-18T22:49:15.893Z,4.60
2023-11-18T22:52:22.154Z,5.57
2023-11-18T22:55:26.342Z,5.47
2023-11-18T22:58:30.237Z,5.47
2023-11-18T23:01:37.832Z,5.25
2023-11-18T23:04:41.635Z,5.70
2023-11-18T23:07:47.408Z,5.00
2023-11-18T23:10:52.345Z,5.93
2023-11-18T23:13:56.458Z,5.22
2023-11-18T23:17:08.253Z,5.13
2023-11-18T23:20:13.444Z,4.88
2023-11-18T23:23:19.435Z,4.82
2023-11-18T23:26:23.081Z,5.17
2023-11-18T23:29:27.032Z,5.10
2023-11-18T23:32:31.561Z,5.85
2023-11-18T23:35:35.438Z,4.68
2023-11-18T23:38:40.558Z,5.50
2023-11-18T23:41:44.588Z,6.22
2023-11-18T23:44:48.287Z,5.20
2023-11-18T23:47:52.967Z,5.03
2023-11-18T23:50:56.560Z,6.05
2023-11-18T23:54:01.748Z,5.28
2023-11-18T23:57:06.104Z,5.60
